Time;durP1;ratioP1;P1;durP2;ratioP2;P2;SDS_P1;SDS_P2;PMS_P1;PMS_P2;Temp;Humidity;BMP_temperature;BMP_pressure;BME280_temperature;BME280_humidity;BME280_pressure;Samples;Min_cycle;Max_cycle;Signal;HPM_P1;HPM_P2
2021/05/06 00:01:38;;;;;;;22.58;2.85;;;;;;;;;;6236904;23;20090;-87
2021/05/06 00:34:00;;;;;;;10.88;3.05;;;;;;;;;;6223267;23;20024;-88
2021/05/06 00:36:27;;;;;;;15.77;2.42;;;;;;;;;;6199347;23;20199;-86
2021/05/06 00:39:05;;;;;;;10.68;2.30;;;;;;;;;;6195991;23;20028;-88
2021/05/06 00:41:43;;;;;;;7.35;2.17;;;;;;;;;;6197222;23;20199;-88
2021/05/06 00:55:17;;;;;;;15.50;2.60;;;;;;;;;;6222169;23;20028;-88
2021/05/06 01:01:12;;;;;;;17.67;3.50;;;;;;;;;;6223712;23;20059;-88
2021/05/06 01:03:12;;;;;;;10.80;2.45;;;;;;;;;;6211008;23;20024;-88
2021/05/06 01:05:48;;;;;;;12.00;2.78;;;;;;;;;;6194802;23;20098;-87
2021/05/06 01:13:31;;;;;;;12.18;3.05;;;;;;;;;;6222759;23;20291;-88
2021/05/06 01:15:58;;;;;;;20.40;2.90;;;;;;;;;;6196068;23;20107;-88
2021/05/06 01:18:31;;;;;;;14.43;3.08;;;;;;;;;;6222374;23;20031;-88
2021/05/06 01:21:00;;;;;;;18.45;4.72;;;;;;;;;;6204111;23;20019;-88
2021/05/06 01:23:28;;;;;;;16.33;3.53;;;;;;;;;;6213731;23;20512;-87
2021/05/06 01:25:57;;;;;;;13.52;2.85;;;;;;;;;;6214974;23;20009;-87
2021/05/06 01:28:30;;;;;;;13.82;3.40;;;;;;;;;;6231264;23;20028;-87
2021/05/06 01:31:11;;;;;;;20.52;3.20;;;;;;;;;;6222878;23;20096;-88
2021/05/06 01:36:34;;;;;;;10.88;3.05;;;;;;;;;;6221886;23;20031;-88
2021/05/06 01:47:08;;;;;;;18.17;3.45;;;;;;;;;;6238183;23;20013;-88
2021/05/06 02:00:10;;;;;;;21.85;2.95;;;;;;;;;;6238895;23;20025;-88
2021/05/06 02:02:37;;;;;;;18.95;3.67;;;;;;;;;;6237769;23;20028;-88
2021/05/06 02:05:04;;;;;;;19.30;3.80;;;;;;;;;;6237466;23;20297;-87
2021/05/06 02:07:31;;;;;;;9.98;2.80;;;;;;;;;;6209113;23;20032;-88
2021/05/06 02:09:57;;;;;;;23.85;3.97;;;;;;;;;;6206793;23;20040;-88
2021/05/06 02:12:24;;;;;;;12.20;3.28;;;;;;;;;;6179216;23;20406;-87
2021/05/06 02:14:55;;;;;;;13.77;3.05;;;;;;;;;;6198419;23;20047;-88
2021/05/06 02:17:22;;;;;;;10.15;2.50;;;;;;;;;;6170526;23;20028;-88
2021/05/06 02:19:50;;;;;;;13.68;2.85;;;;;;;;;;6192980;23;20036;-87
2021/05/06 02:22:17;;;;;;;11.82;3.35;;;;;;;;;;6194750;23;20095;-89
2021/05/06 02:24:43;;;;;;;20.95;3.13;;;;;;;;;;6194233;23;20457;-88
2021/05/06 02:27:10;;;;;;;11.48;3.65;;;;;;;;;;6193949;23;20362;-88
2021/05/06 02:29:36;;;;;;;12.80;2.80;;;;;;;;;;6166876;23;20289;-88
2021/05/06 02:32:06;;;;;;;14.95;3.25;;;;;;;;;;6192689;23;20029;-88
2021/05/06 02:34:32;;;;;;;15.95;3.58;;;;;;;;;;6191348;23;20068;-88
2021/05/06 02:36:59;;;;;;;14.07;3.03;;;;;;;;;;6165897;23;20029;-88
2021/05/06 02:39:25;;;;;;;16.90;3.20;;;;;;;;;;6166614;23;20071;-87
2021/05/06 02:41:58;;;;;;;19.33;3.20;;;;;;;;;;6166257;23;20056;-88
2021/05/06 02:44:24;;;;;;;16.98;3.05;;;;;;;;;;6164867;23;20071;-88
2021/05/06 02:46:50;;;;;;;17.55;3.47;;;;;;;;;;6190577;23;20042;-87
2021/05/06 02:49:20;;;;;;;16.45;3.08;;;;;;;;;;6190567;23;20111;-88
2021/05/06 02:51:59;;;;;;;18.60;3.53;;;;;;;;;;6141096;23;20100;-88
2021/05/06 02:54:34;;;;;;;16.77;3.30;;;;;;;;;;6164581;23;20032;-88
2021/05/06 03:05:14;;;;;;;16.55;3.60;;;;;;;;;;6193552;23;20017;-88
2021/05/06 03:07:46;;;;;;;14.48;3.58;;;;;;;;;;6173318;23;20043;-88
2021/05/06 03:10:27;;;;;;;9.25;2.80;;;;;;;;;;6182807;23;20035;-88
2021/05/06 03:23:28;;;;;;;15.43;3.78;;;;;;;;;;6192490;23;20040;-88
2021/05/06 03:25:55;;;;;;;17.88;3.78;;;;;;;;;;6166113;23;20071;-88
2021/05/06 03:28:28;;;;;;;14.25;3.90;;;;;;;;;;6192468;23;20048;-87
2021/05/06 03:46:20;;;;;;;17.83;4.07;;;;;;;;;;6178157;23;20013;-87
2021/05/06 04:19:11;;;;;;;13.00;4.60;;;;;;;;;;6198172;23;20028;-88
2021/05/06 04:27:13;;;;;;;16.10;5.63;;;;;;;;;;6192474;23;20289;-88
2021/05/06 04:37:51;;;;;;;15.07;4.07;;;;;;;;;;6191313;23;20104;-88
2021/05/06 04:59:22;;;;;;;10.80;3.85;;;;;;;;;;6189815;23;20093;-88
2021/05/06 05:04:50;;;;;;;17.15;3.55;;;;;;;;;;6189572;23;20029;-88
2021/05/06 05:25:39;;;;;;;13.07;2.90;;;;;;;;;;6221903;23;20021;-88
2021/05/06 05:28:06;;;;;;;5.82;2.40;;;;;;;;;;6220836;23;20031;-88
2021/05/06 05:30:34;;;;;;;9.93;2.33;;;;;;;;;;6219742;23;20024;-88
2021/05/06 05:33:15;;;;;;;10.23;2.38;;;;;;;;;;6190970;23;20028;-88
2021/05/06 05:36:42;;;;;;;6.43;2.45;;;;;;;;;;6191425;23;20250;-89
2021/05/06 05:38:59;;;;;;;10.60;2.25;;;;;;;;;;6193333;23;20043;-88
2021/05/06 05:44:40;;;;;;;9.20;2.33;;;;;;;;;;6218655;23;20037;-88
2021/05/06 05:55:13;;;;;;;5.95;2.10;;;;;;;;;;6218544;23;20063;-90
2021/05/06 05:57:43;;;;;;;7.53;2.15;;;;;;;;;;6191342;23;20060;-88
2021/05/06 06:00:10;;;;;;;8.23;2.42;;;;;;;;;;6218953;23;20021;-89
2021/05/06 06:02:38;;;;;;;7.50;2.13;;;;;;;;;;6194181;23;20025;-88
2021/05/06 06:05:05;;;;;;;5.30;2.42;;;;;;;;;;6229883;22;20121;-89
2021/05/06 06:07:33;;;;;;;6.85;2.72;;;;;;;;;;6204480;23;20005;-89
2021/05/06 06:10:01;;;;;;;3.58;1.70;;;;;;;;;;6178029;23;20060;-89
2021/05/06 06:12:27;;;;;;;4.38;2.00;;;;;;;;;;6165833;23;20028;-89
2021/05/06 06:15:09;;;;;;;6.47;2.25;;;;;;;;;;6162746;23;20047;-88
2021/05/06 06:17:42;;;;;;;4.38;2.28;;;;;;;;;;6189345;23;20025;-90
2021/05/06 06:20:13;;;;;;;7.18;1.85;;;;;;;;;;6193954;23;20048;-89
2021/05/06 06:22:40;;;;;;;6.47;2.13;;;;;;;;;;6190717;23;20029;-90
2021/05/06 06:25:07;;;;;;;5.65;2.40;;;;;;;;;;6163424;23;20047;-89
2021/05/06 06:27:37;;;;;;;5.13;2.60;;;;;;;;;;6186957;23;20079;-87
2021/05/06 06:30:05;;;;;;;5.25;2.30;;;;;;;;;;6173727;23;20159;-88
2021/05/06 06:32:31;;;;;;;3.65;1.80;;;;;;;;;;6165904;23;20033;-88
2021/05/06 06:34:58;;;;;;;7.03;2.00;;;;;;;;;;6162104;23;20060;-90
2021/05/06 06:37:25;;;;;;;3.88;1.88;;;;;;;;;;6190224;23;20053;-89
2021/05/06 06:39:54;;;;;;;4.25;1.98;;;;;;;;;;6166737;23;20513;-88
2021/05/06 06:42:39;;;;;;;6.38;2.17;;;;;;;;;;6195267;23;20028;-92
2021/05/06 06:45:07;;;;;;;5.45;2.00;;;;;;;;;;6189702;23;20021;-87
2021/05/06 06:47:35;;;;;;;8.65;2.25;;;;;;;;;;6163208;23;20025;-89
2021/05/06 06:50:02;;;;;;;4.20;1.88;;;;;;;;;;6193782;23;20029;-89
2021/05/06 06:52:29;;;;;;;5.63;2.08;;;;;;;;;;6189753;23;20017;-88
2021/05/06 06:54:55;;;;;;;5.97;2.17;;;;;;;;;;6164356;23;20221;-89
2021/05/06 06:57:22;;;;;;;4.90;2.13;;;;;;;;;;6191494;23;20227;-89
2021/05/06 06:59:50;;;;;;;3.40;2.17;;;;;;;;;;6188222;23;20032;-88
2021/05/06 07:02:17;;;;;;;5.68;2.47;;;;;;;;;;6190033;23;20025;-89
2021/05/06 07:04:43;;;;;;;5.47;2.17;;;;;;;;;;6179490;23;20128;-90
2021/05/06 07:07:13;;;;;;;5.53;2.28;;;;;;;;;;6229428;23;20028;-88
2021/05/06 07:09:41;;;;;;;5.95;2.10;;;;;;;;;;6235648;22;20079;-90
2021/05/06 07:12:10;;;;;;;7.30;2.28;;;;;;;;;;6219215;23;20025;-87
2021/05/06 07:14:38;;;;;;;9.50;2.42;;;;;;;;;;6223003;23;20329;-89
2021/05/06 07:17:11;;;;;;;7.00;1.98;;;;;;;;;;6235112;23;20033;-87
2021/05/06 07:19:38;;;;;;;5.82;2.08;;;;;;;;;;6230916;23;20020;-87
2021/05/06 07:22:07;;;;;;;5.70;2.10;;;;;;;;;;6221335;23;20039;-89
2021/05/06 07:24:37;;;;;;;4.70;1.48;;;;;;;;;;6220398;23;20024;-87
2021/05/06 07:27:05;;;;;;;8.30;2.38;;;;;;;;;;6219908;23;20024;-86
2021/05/06 07:29:34;;;;;;;6.45;1.88;;;;;;;;;;6218317;23;20032;-87
2021/05/06 07:32:02;;;;;;;8.13;2.15;;;;;;;;;;6218270;23;20029;-87
2021/05/06 07:34:31;;;;;;;8.40;2.20;;;;;;;;;;6223567;23;20090;-87
2021/05/06 07:36:59;;;;;;;11.88;2.25;;;;;;;;;;6223517;23;20021;-89
2021/05/06 07:39:31;;;;;;;5.95;2.35;;;;;;;;;;6221741;23;20021;-88
2021/05/06 07:42:00;;;;;;;8.45;2.03;;;;;;;;;;6217934;23;20028;-87
2021/05/06 07:44:30;;;;;;;7.95;2.17;;;;;;;;;;6220368;23;20048;-87
2021/05/06 07:47:10;;;;;;;8.32;2.00;;;;;;;;;;6220136;23;20131;-87
2021/05/06 07:49:46;;;;;;;6.45;2.00;;;;;;;;;;6219317;23;20273;-88
2021/05/06 07:52:21;;;;;;;;;;;;;;;;;;6223310;23;20051;-87
2021/05/06 07:54:54;;;;;;;4.72;1.70;;;;;;;;;;6221726;23;19924;-87
2021/05/06 07:57:24;;;;;;;5.35;1.85;;;;;;;;;;6198838;23;20020;-87
2021/05/06 07:59:51;;;;;;;8.90;2.15;;;;;;;;;;6197298;23;20036;-86
2021/05/06 08:02:19;;;;;;;8.82;1.83;;;;;;;;;;6198153;23;20025;-87
2021/05/06 08:04:49;;;;;;;5.45;1.77;;;;;;;;;;6224677;23;20020;-87
2021/05/06 08:07:16;;;;;;;11.38;2.25;;;;;;;;;;6225203;23;20168;-87
2021/05/06 08:09:43;;;;;;;7.53;2.78;;;;;;;;;;6221339;23;20020;-87
2021/05/06 08:12:12;;;;;;;6.35;1.80;;;;;;;;;;6221541;23;20021;-86
2021/05/06 08:14:39;;;;;;;5.55;2.03;;;;;;;;;;6226527;23;20076;-87
2021/05/06 08:17:08;;;;;;;6.38;2.15;;;;;;;;;;6223765;23;20197;-88
2021/05/06 08:19:36;;;;;;;9.85;2.30;;;;;;;;;;6229635;23;20001;-88
2021/05/06 08:22:02;;;;;;;6.45;2.10;;;;;;;;;;6199324;23;20029;-87
2021/05/06 08:24:36;;;;;;;4.40;1.50;;;;;;;;;;6224107;23;20024;-88
2021/05/06 08:27:09;;;;;;;8.18;1.65;;;;;;;;;;6221330;23;20024;-87
2021/05/06 08:29:36;;;;;;;6.93;1.75;;;;;;;;;;6197341;23;20031;-87
2021/05/06 08:35:13;;;;;;;4.00;1.70;;;;;;;;;;6242352;23;20012;-89
2021/05/06 08:37:40;;;;;;;4.68;1.58;;;;;;;;;;6216013;23;20076;-88
2021/05/06 08:40:09;;;;;;;5.03;1.60;;;;;;;;;;6229108;23;20036;-86
2021/05/06 08:42:35;;;;;;;3.40;1.73;;;;;;;;;;6221747;23;20031;-86
2021/05/06 08:45:03;;;;;;;6.45;1.60;;;;;;;;;;6220966;23;20191;-88
2021/05/06 08:47:36;;;;;;;5.32;1.83;;;;;;;;;;6221752;23;20329;-87
2021/05/06 08:50:03;;;;;;;7.22;2.03;;;;;;;;;;6196439;23;20075;-87
2021/05/06 08:52:31;;;;;;;5.07;1.60;;;;;;;;;;6225068;23;20063;-88
2021/05/06 08:55:01;;;;;;;3.50;1.45;;;;;;;;;;6198704;23;20024;-87
2021/05/06 08:57:28;;;;;;;4.65;1.40;;;;;;;;;;6226041;23;20409;-87
2021/05/06 08:59:54;;;;;;;5.72;1.85;;;;;;;;;;6224924;23;20229;-86
2021/05/06 09:02:21;;;;;;;7.30;1.60;;;;;;;;;;6224942;23;20102;-86
2021/05/06 09:04:54;;;;;;;3.90;1.35;;;;;;;;;;6199613;23;20009;-87
2021/05/06 09:07:22;;;;;;;7.20;1.92;;;;;;;;;;6231239;23;20009;-88
2021/05/06 09:09:51;;;;;;;5.45;1.48;;;;;;;;;;6210060;23;20012;-86
2021/05/06 09:12:33;;;;;;;4.90;1.70;;;;;;;;;;6208656;23;20044;-87
2021/05/06 09:15:06;;;;;;;7.43;1.63;;;;;;;;;;6226856;23;20226;-87
2021/05/06 09:17:35;;;;;;;6.47;1.30;;;;;;;;;;6197898;23;20217;-86
2021/05/06 09:20:05;;;;;;;4.45;1.00;;;;;;;;;;6222611;23;20239;-86
2021/05/06 09:22:32;;;;;;;4.43;1.48;;;;;;;;;;6193228;23;20029;-86
2021/05/06 09:25:18;;;;;;;6.18;1.33;;;;;;;;;;6196734;23;20078;-86
2021/05/06 09:28:03;;;;;;;2.97;1.15;;;;;;;;;;6200288;23;20023;-86
2021/05/06 09:30:35;;;;;;;3.53;1.00;;;;;;;;;;6198807;23;20029;-85
2021/05/06 09:33:06;;;;;;;4.55;1.42;;;;;;;;;;6224075;23;20071;-87
2021/05/06 09:35:51;;;;;;;2.85;0.98;;;;;;;;;;6222532;23;20078;-87
2021/05/06 09:38:22;;;;;;;3.67;0.82;;;;;;;;;;6224820;23;20025;-86
2021/05/06 09:40:50;;;;;;;4.30;1.00;;;;;;;;;;6195067;23;20035;-86
2021/05/06 09:43:25;;;;;;;5.72;1.08;;;;;;;;;;6220358;23;20265;-86
2021/05/06 09:45:51;;;;;;;4.60;1.08;;;;;;;;;;6193239;23;20369;-87
2021/05/06 09:48:22;;;;;;;5.22;1.13;;;;;;;;;;6218296;23;20433;-85
2021/05/06 09:50:51;;;;;;;2.08;0.55;;;;;;;;;;6215931;23;20032;-87
2021/05/06 09:53:20;;;;;;;6.22;1.65;;;;;;;;;;6189698;23;20028;-86
2021/05/06 09:55:48;;;;;;;5.47;0.90;;;;;;;;;;6190345;23;20071;-87
2021/05/06 09:58:16;;;;;;;7.82;1.40;;;;;;;;;;6215825;23;20024;-86
2021/05/06 10:00:55;;;;;;;4.03;1.00;;;;;;;;;;6192389;23;20260;-87
2021/05/06 10:03:24;;;;;;;5.10;1.10;;;;;;;;;;6219902;23;20024;-86
2021/05/06 10:05:51;;;;;;;3.53;1.02;;;;;;;;;;6218810;23;20024;-86
2021/05/06 10:08:34;;;;;;;3.08;0.98;;;;;;;;;;6217631;23;20025;-86
2021/05/06 10:11:07;;;;;;;3.72;0.80;;;;;;;;;;6218683;23;20033;-86
2021/05/06 10:13:36;;;;;;;5.38;1.00;;;;;;;;;;6194186;23;20088;-87
2021/05/06 10:16:07;;;;;;;4.75;0.98;;;;;;;;;;6218344;23;20029;-87
2021/05/06 10:18:34;;;;;;;5.30;1.33;;;;;;;;;;6218232;23;20024;-87
2021/05/06 10:21:01;;;;;;;1.52;0.98;;;;;;;;;;6216164;23;20028;-86
2021/05/06 10:23:31;;;;;;;2.70;0.88;;;;;;;;;;6194523;23;20177;-88
2021/05/06 10:25:58;;;;;;;3.05;0.80;;;;;;;;;;6193704;23;20101;-87
2021/05/06 10:28:25;;;;;;;5.28;0.90;;;;;;;;;;6190260;23;20266;-87
2021/05/06 10:30:52;;;;;;;3.90;0.95;;;;;;;;;;6198646;23;20163;-87
2021/05/06 10:33:25;;;;;;;2.20;0.85;;;;;;;;;;6205969;23;20062;-86
2021/05/06 10:35:51;;;;;;;1.92;0.90;;;;;;;;;;6226595;23;20024;-87
2021/05/06 10:38:18;;;;;;;5.15;0.90;;;;;;;;;;6190423;23;20025;-87
2021/05/06 10:40:50;;;;;;;2.92;0.88;;;;;;;;;;6216642;23;20024;-85
2021/05/06 10:43:30;;;;;;;5.65;1.42;;;;;;;;;;6198178;23;20025;-85
2021/05/06 10:46:00;;;;;;;2.55;1.00;;;;;;;;;;6232216;23;20111;-86
2021/05/06 10:48:45;;;;;;;3.55;0.80;;;;;;;;;;6203370;23;20072;-87
2021/05/06 10:51:38;;;;;;;5.05;1.63;;;;;;;;;;6206122;23;20143;-87
2021/05/06 10:54:24;;;;;;;4.13;1.00;;;;;;;;;;6223035;23;20060;-86
2021/05/06 10:56:51;;;;;;;2.55;0.75;;;;;;;;;;6222669;23;20097;-87
2021/05/06 10:59:40;;;;;;;4.88;1.10;;;;;;;;;;6192685;23;20021;-86
2021/05/06 11:02:09;;;;;;;3.67;1.13;;;;;;;;;;6218397;23;20103;-87
2021/05/06 11:04:38;;;;;;;4.18;0.95;;;;;;;;;;6195012;23;20028;-86
2021/05/06 11:07:11;;;;;;;6.13;0.90;;;;;;;;;;6188932;23;20024;-86
2021/05/06 11:09:48;;;;;;;3.80;1.00;;;;;;;;;;6221973;23;20028;-87
2021/05/06 11:12:30;;;;;;;2.95;1.23;;;;;;;;;;6194079;23;20040;-87
2021/05/06 11:15:03;;;;;;;2.70;0.80;;;;;;;;;;6191354;23;20028;-87
2021/05/06 11:17:33;;;;;;;4.28;0.90;;;;;;;;;;6218320;23;20020;-88
2021/05/06 11:20:01;;;;;;;2.38;0.90;;;;;;;;;;6220284;23;20028;-88
2021/05/06 11:22:43;;;;;;;3.90;0.65;;;;;;;;;;6219586;23;20064;-87
2021/05/06 11:25:26;;;;;;;2.00;0.80;;;;;;;;;;6194348;23;20025;-86
2021/05/06 11:27:53;;;;;;;2.35;0.95;;;;;;;;;;6190098;23;20047;-87
2021/05/06 11:30:34;;;;;;;4.07;0.85;;;;;;;;;;6191666;23;20028;-87
2021/05/06 11:33:22;;;;;;;2.40;0.60;;;;;;;;;;6217654;23;20579;-87
2021/05/06 11:35:57;;;;;;;2.15;0.80;;;;;;;;;;6196936;23;20349;-88
2021/05/06 11:38:44;;;;;;;2.38;0.68;;;;;;;;;;6224275;23;20437;-86
2021/05/06 11:41:38;;;;;;;4.47;0.73;;;;;;;;;;6223296;23;20037;-86
2021/05/06 11:44:07;;;;;;;3.85;0.88;;;;;;;;;;6223094;23;20078;-87
2021/05/06 11:46:39;;;;;;;3.15;0.63;;;;;;;;;;6199367;23;20080;-87
2021/05/06 11:49:13;;;;;;;6.38;1.20;;;;;;;;;;6223314;23;20120;-87
2021/05/06 11:51:44;;;;;;;3.72;0.90;;;;;;;;;;6223918;23;20067;-86
2021/05/06 11:54:17;;;;;;;4.78;1.00;;;;;;;;;;6198516;23;20044;-86
2021/05/06 11:56:58;;;;;;;4.35;1.08;;;;;;;;;;6192480;23;20039;-88
2021/05/06 11:59:28;;;;;;;5.50;1.17;;;;;;;;;;6193530;23;20310;-87
2021/05/06 12:01:59;;;;;;;5.22;0.80;;;;;;;;;;6191785;23;20202;-87
2021/05/06 12:04:26;;;;;;;5.50;1.08;;;;;;;;;;6193812;23;20024;-85
2021/05/06 12:06:54;;;;;;;5.57;0.90;;;;;;;;;;6194610;23;20024;-86
2021/05/06 12:09:30;;;;;;;3.60;1.08;;;;;;;;;;6222111;23;20252;-86
2021/05/06 12:12:09;;;;;;;5.43;1.10;;;;;;;;;;6218837;23;20029;-87
2021/05/06 12:14:37;;;;;;;5.00;1.20;;;;;;;;;;6199973;23;20022;-87
2021/05/06 12:17:05;;;;;;;3.45;1.08;;;;;;;;;;6205864;23;20020;-87
2021/05/06 12:19:32;;;;;;;5.55;1.20;;;;;;;;;;6234399;23;20021;-86
2021/05/06 12:21:59;;;;;;;6.85;1.35;;;;;;;;;;6230684;23;20012;-86
2021/05/06 12:24:29;;;;;;;2.63;1.00;;;;;;;;;;6205470;23;20029;-87
2021/05/06 12:26:56;;;;;;;4.07;0.82;;;;;;;;;;6232991;23;20025;-88
2021/05/06 12:29:31;;;;;;;3.95;1.00;;;;;;;;;;6207487;23;20028;-86
2021/05/06 12:31:58;;;;;;;3.90;0.90;;;;;;;;;;6206676;23;20031;-87
2021/05/06 12:34:26;;;;;;;7.53;0.60;;;;;;;;;;6232523;23;20024;-85
2021/05/06 12:36:55;;;;;;;6.82;0.90;;;;;;;;;;6207564;23;20025;-84
2021/05/06 12:39:23;;;;;;;3.33;0.68;;;;;;;;;;6208655;23;20036;-84
2021/05/06 12:41:53;;;;;;;5.90;1.00;;;;;;;;;;6231667;23;20025;-83
2021/05/06 12:44:52;;;;;;;2.42;0.70;;;;;;;;;;6199739;23;20117;-83
2021/05/06 12:47:26;;;;;;;2.63;0.60;;;;;;;;;;6200912;23;20041;-83
2021/05/06 12:50:19;;;;;;;0.93;0.60;;;;;;;;;;6229720;23;20027;-83
2021/05/06 12:52:50;;;;;;;1.35;0.50;;;;;;;;;;6200361;23;20027;-83
2021/05/06 12:55:18;;;;;;;2.60;0.70;;;;;;;;;;6226562;23;20040;-83
2021/05/06 12:58:02;;;;;;;2.00;0.80;;;;;;;;;;6202672;23;20308;-85
2021/05/06 13:00:36;;;;;;;2.22;0.80;;;;;;;;;;6201984;23;20072;-83
2021/05/06 13:03:04;;;;;;;1.88;1.00;;;;;;;;;;6199788;23;20032;-83
2021/05/06 13:05:32;;;;;;;1.45;0.65;;;;;;;;;;6199645;23;20036;-84
2021/05/06 13:08:02;;;;;;;2.40;1.10;;;;;;;;;;6227430;23;20051;-83
2021/05/06 13:10:33;;;;;;;2.95;0.90;;;;;;;;;;6199674;23;20059;-83
2021/05/06 13:13:03;;;;;;;2.25;0.90;;;;;;;;;;6197414;23;20032;-85
2021/05/06 13:15:54;;;;;;;4.90;1.08;;;;;;;;;;6202326;23;20024;-83
2021/05/06 13:18:22;;;;;;;2.25;0.90;;;;;;;;;;6197953;23;20038;-83
2021/05/06 13:20:52;;;;;;;2.65;1.00;;;;;;;;;;6198199;23;20027;-84
2021/05/06 13:23:23;;;;;;;6.30;1.55;;;;;;;;;;6225935;23;20021;-83
2021/05/06 13:26:03;;;;;;;2.03;1.75;;;;;;;;;;6226002;23;20035;-83
2021/05/06 13:28:31;;;;;;;6.88;2.17;;;;;;;;;;6199072;23;20126;-83
2021/05/06 13:31:07;;;;;;;4.32;2.22;;;;;;;;;;6203212;23;20076;-82
2021/05/06 13:33:34;;;;;;;3.83;2.50;;;;;;;;;;6200139;23;20021;-82
2021/05/06 13:36:07;;;;;;;4.40;2.63;;;;;;;;;;6201289;23;20036;-83
2021/05/06 13:38:54;;;;;;;3.92;2.38;;;;;;;;;;6197920;23;20025;-83
2021/05/06 13:41:23;;;;;;;3.88;2.70;;;;;;;;;;6224082;23;20024;-83
2021/05/06 13:43:51;;;;;;;6.38;2.42;;;;;;;;;;6224207;23;20116;-83
2021/05/06 13:46:22;;;;;;;4.13;2.20;;;;;;;;;;6204912;23;20024;-83
2021/05/06 13:48:51;;;;;;;3.47;2.38;;;;;;;;;;6199132;23;20055;-84
2021/05/06 13:51:18;;;;;;;3.20;2.22;;;;;;;;;;6198500;23;20051;-82
2021/05/06 13:53:46;;;;;;;4.60;2.17;;;;;;;;;;6200484;23;20103;-84
2021/05/06 13:56:14;;;;;;;6.10;2.13;;;;;;;;;;6202340;23;20068;-83
2021/05/06 13:58:41;;;;;;;3.80;2.20;;;;;;;;;;6236826;23;20024;-85
2021/05/06 14:01:11;;;;;;;3.70;2.30;;;;;;;;;;6210570;23;20016;-83
2021/05/06 14:03:44;;;;;;;3.38;2.15;;;;;;;;;;6226754;23;20303;-84
2021/05/06 14:06:11;;;;;;;3.58;2.03;;;;;;;;;;6199894;23;20054;-84
2021/05/06 14:08:39;;;;;;;4.03;2.35;;;;;;;;;;6226373;23;20043;-84
2021/05/06 14:11:09;;;;;;;4.68;1.88;;;;;;;;;;6208772;23;20009;-84
2021/05/06 14:13:58;;;;;;;3.25;2.10;;;;;;;;;;6231446;23;20025;-84
2021/05/06 14:16:25;;;;;;;3.75;1.70;;;;;;;;;;6200740;23;20075;-84
2021/05/06 14:18:56;;;;;;;4.45;1.55;;;;;;;;;;6209721;23;20110;-84
2021/05/06 14:21:26;;;;;;;3.90;1.52;;;;;;;;;;6234573;23;20016;-85
2021/05/06 14:23:53;;;;;;;3.75;1.95;;;;;;;;;;6207804;23;20188;-83
2021/05/06 14:29:33;;;;;;;4.55;1.77;;;;;;;;;;6217198;23;20037;-84
2021/05/06 14:32:00;;;;;;;2.05;1.27;;;;;;;;;;6203762;23;20056;-85
2021/05/06 14:34:29;;;;;;;3.08;1.45;;;;;;;;;;6228434;23;20029;-84
2021/05/06 14:37:04;;;;;;;2.90;1.40;;;;;;;;;;6204537;23;20073;-84
2021/05/06 14:39:34;;;;;;;2.58;1.20;;;;;;;;;;6199426;23;20035;-84
2021/05/06 14:42:00;;;;;;;3.63;1.60;;;;;;;;;;6200883;23;20079;-83
2021/05/06 14:44:28;;;;;;;1.73;1.00;;;;;;;;;;6202154;23;20083;-83
2021/05/06 14:47:19;;;;;;;4.40;1.40;;;;;;;;;;6226078;23;20031;-84
2021/05/06 14:49:49;;;;;;;4.07;1.45;;;;;;;;;;6226875;23;20035;-84
2021/05/06 14:52:22;;;;;;;3.55;1.40;;;;;;;;;;6225635;23;20029;-84
2021/05/06 14:54:48;;;;;;;4.13;1.65;;;;;;;;;;6200018;23;20025;-82
2021/05/06 14:57:18;;;;;;;4.78;1.50;;;;;;;;;;6224622;23;20083;-84
2021/05/06 14:59:49;;;;;;;4.72;1.50;;;;;;;;;;6227895;23;20399;-84
2021/05/06 15:02:26;;;;;;;3.50;1.60;;;;;;;;;;6226126;23;20032;-84
2021/05/06 15:04:55;;;;;;;2.15;1.38;;;;;;;;;;6198693;23;20031;-85
2021/05/06 15:07:25;;;;;;;4.28;1.60;;;;;;;;;;6223721;23;20021;-84
2021/05/06 15:09:53;;;;;;;2.67;1.42;;;;;;;;;;6200973;23;20043;-83
2021/05/06 15:12:22;;;;;;;2.63;1.35;;;;;;;;;;6227322;23;20082;-84
2021/05/06 15:14:52;;;;;;;6.38;1.67;;;;;;;;;;6204981;23;20032;-84
2021/05/06 15:17:19;;;;;;;2.63;1.45;;;;;;;;;;6205049;23;20025;-84
2021/05/06 15:19:59;;;;;;;3.95;1.40;;;;;;;;;;6207907;23;20023;-85
2021/05/06 15:22:28;;;;;;;4.20;1.65;;;;;;;;;;6240528;23;20040;-85
2021/05/06 15:25:16;;;;;;;3.17;1.52;;;;;;;;;;6230957;23;20031;-84
2021/05/06 15:28:20;;;;;;;3.88;1.50;;;;;;;;;;6198829;23;20100;-87
2021/05/06 15:30:50;;;;;;;4.80;1.40;;;;;;;;;;6198855;23;20100;-84
2021/05/06 15:33:17;;;;;;;3.10;1.20;;;;;;;;;;6197626;23;20047;-84
2021/05/06 15:35:45;;;;;;;3.03;1.70;;;;;;;;;;6197312;23;20024;-83
2021/05/06 15:38:11;;;;;;;5.07;1.60;;;;;;;;;;6196964;23;20123;-84
2021/05/06 15:40:39;;;;;;;3.13;1.23;;;;;;;;;;6199035;23;20197;-85
2021/05/06 15:43:15;;;;;;;5.55;1.30;;;;;;;;;;6192360;23;20036;-84
2021/05/06 15:45:48;;;;;;;4.43;1.58;;;;;;;;;;6196062;23;20160;-84
2021/05/06 15:48:16;;;;;;;5.15;1.77;;;;;;;;;;6200513;23;20025;-85
2021/05/06 15:50:43;;;;;;;3.17;1.48;;;;;;;;;;6224231;23;20110;-85
2021/05/06 15:53:12;;;;;;;2.08;1.60;;;;;;;;;;6197974;23;20029;-84
2021/05/06 15:55:39;;;;;;;2.75;1.60;;;;;;;;;;6197200;23;20031;-84
2021/05/06 15:58:06;;;;;;;3.30;1.50;;;;;;;;;;6197890;23;20012;-84
2021/05/06 16:00:34;;;;;;;2.92;1.38;;;;;;;;;;6198715;23;20068;-84
2021/05/06 16:03:07;;;;;;;3.83;2.10;;;;;;;;;;6223991;23;20103;-84
2021/05/06 16:05:37;;;;;;;3.10;2.20;;;;;;;;;;6205734;23;20068;-84
2021/05/06 16:08:04;;;;;;;3.72;2.20;;;;;;;;;;6201613;23;20024;-85
2021/05/06 16:10:31;;;;;;;4.45;2.30;;;;;;;;;;6205916;23;20040;-85
2021/05/06 16:12:58;;;;;;;2.63;2.13;;;;;;;;;;6205597;23;20070;-83
2021/05/06 16:15:28;;;;;;;5.80;2.40;;;;;;;;;;6204631;23;20024;-84
2021/05/06 16:17:58;;;;;;;3.85;3.15;;;;;;;;;;6226510;23;20028;-85
2021/05/06 16:20:32;;;;;;;4.78;2.58;;;;;;;;;;6199526;23;20035;-84
2021/05/06 16:22:59;;;;;;;5.38;2.28;;;;;;;;;;6225125;23;20024;-85
2021/05/06 16:25:33;;;;;;;3.75;2.15;;;;;;;;;;6198150;23;20025;-84
2021/05/06 16:28:01;;;;;;;4.47;2.30;;;;;;;;;;6197293;23;20036;-84
2021/05/06 16:30:27;;;;;;;4.13;2.22;;;;;;;;;;6222628;23;20071;-84
2021/05/06 16:32:54;;;;;;;3.67;2.40;;;;;;;;;;6198632;23;20040;-84
2021/05/06 16:35:32;;;;;;;4.60;2.17;;;;;;;;;;6198790;23;20087;-84
2021/05/06 16:38:15;;;;;;;3.60;2.72;;;;;;;;;;6226328;23;20234;-84
2021/05/06 16:40:54;;;;;;;7.30;2.50;;;;;;;;;;6199893;23;20066;-84
2021/05/06 16:46:11;;;;;;;3.85;2.67;;;;;;;;;;6225196;23;20072;-84
2021/05/06 16:48:39;;;;;;;3.00;2.17;;;;;;;;;;6200586;23;20020;-83
2021/05/06 16:51:05;;;;;;;5.78;2.28;;;;;;;;;;6201738;23;20079;-85
2021/05/06 16:53:52;;;;;;;4.88;2.95;;;;;;;;;;6202797;23;20035;-84
2021/05/06 16:56:20;;;;;;;5.03;2.90;;;;;;;;;;6200603;23;20028;-84
2021/05/06 16:58:47;;;;;;;2.50;2.20;;;;;;;;;;6198917;23;20024;-84
2021/05/06 17:01:13;;;;;;;3.85;2.45;;;;;;;;;;6198806;23;20089;-84
2021/05/06 17:03:54;;;;;;;3.58;2.42;;;;;;;;;;6198717;23;20505;-84
2021/05/06 17:06:20;;;;;;;5.93;2.80;;;;;;;;;;6198120;23;20313;-84
2021/05/06 17:08:47;;;;;;;3.72;2.20;;;;;;;;;;6222286;23;20072;-84
2021/05/06 17:11:20;;;;;;;4.18;2.50;;;;;;;;;;6223496;23;20204;-84
2021/05/06 17:13:57;;;;;;;3.63;2.13;;;;;;;;;;6199734;23;20079;-83
2021/05/06 17:16:28;;;;;;;4.90;2.40;;;;;;;;;;6197881;23;20418;-85
2021/05/06 17:18:57;;;;;;;7.53;2.55;;;;;;;;;;6208303;23;20020;-85
2021/05/06 17:21:25;;;;;;;5.82;2.70;;;;;;;;;;6211880;23;20032;-83
2021/05/06 17:24:16;;;;;;;5.47;3.38;;;;;;;;;;6206568;23;20043;-86
2021/05/06 17:26:45;;;;;;;5.13;2.10;;;;;;;;;;6197988;23;20079;-85
2021/05/06 17:29:14;;;;;;;4.60;2.08;;;;;;;;;;6198635;23;20024;-85
2021/05/06 17:31:40;;;;;;;4.95;1.95;;;;;;;;;;6210551;23;20060;-85
2021/05/06 17:34:14;;;;;;;4.60;2.47;;;;;;;;;;6208829;23;20039;-84
2021/05/06 17:36:47;;;;;;;4.60;2.33;;;;;;;;;;6203956;23;20052;-84
2021/05/06 17:39:20;;;;;;;3.63;2.88;;;;;;;;;;6226321;23;20063;-84
2021/05/06 17:41:46;;;;;;;3.72;2.67;;;;;;;;;;6198809;23;20048;-84
2021/05/06 17:44:14;;;;;;;5.75;3.15;;;;;;;;;;6197556;23;20024;-86
2021/05/06 17:46:42;;;;;;;6.00;2.17;;;;;;;;;;6198888;23;20083;-84
2021/05/06 17:49:10;;;;;;;8.63;1.63;;;;;;;;;;6198397;23;20410;-84
2021/05/06 17:51:44;;;;;;;5.97;1.65;;;;;;;;;;6196838;23;20108;-84
2021/05/06 17:54:11;;;;;;;4.95;1.65;;;;;;;;;;6197441;23;20024;-83
2021/05/06 17:56:38;;;;;;;6.22;1.52;;;;;;;;;;6197925;23;20041;-84
2021/05/06 18:02:29;;;;;;;4.47;1.50;;;;;;;;;;6220508;23;20025;-83
2021/05/06 18:04:56;;;;;;;4.80;1.70;;;;;;;;;;6221759;23;20130;-84
2021/05/06 18:07:35;;;;;;;7.85;1.67;;;;;;;;;;6196239;23;20025;-85
2021/05/06 18:10:07;;;;;;;8.65;2.28;;;;;;;;;;6198472;23;20021;-83
2021/05/06 18:12:34;;;;;;;7.70;1.67;;;;;;;;;;6196503;23;20025;-85
2021/05/06 18:15:04;;;;;;;4.85;1.60;;;;;;;;;;6223598;23;20123;-86
2021/05/06 18:17:31;;;;;;;4.00;1.90;;;;;;;;;;6197093;23;20300;-84
2021/05/06 18:19:58;;;;;;;5.95;1.80;;;;;;;;;;6197191;23;20038;-84
2021/05/06 18:22:30;;;;;;;6.00;1.92;;;;;;;;;;6197707;23;20029;-84
2021/05/06 18:25:12;;;;;;;5.00;1.55;;;;;;;;;;6200738;23;20047;-84
2021/05/06 18:27:45;;;;;;;7.25;1.80;;;;;;;;;;6207119;23;20237;-85
2021/05/06 18:30:15;;;;;;;6.80;1.63;;;;;;;;;;6212121;23;20020;-85
2021/05/06 18:32:42;;;;;;;4.13;1.95;;;;;;;;;;6202152;23;20021;-84
2021/05/06 18:35:09;;;;;;;6.13;1.77;;;;;;;;;;6225190;23;20099;-84
2021/05/06 18:37:37;;;;;;;5.13;1.58;;;;;;;;;;6197487;23;20020;-84